Davisburg, Kentucky
Current Conditions -  °F | °C
As of 12:55 PM on Tuesday 21 Oct 2014 (Local Time) from K1A6 Reporting Station
Overcast Overcast  
Wind Chill: 16°   Ceiling: 5000
Heat Index: 16°   Visibility: 10mi
Dew Point:   Wind: 8mph
Humidity: 57%   Direction: 360°N
Pressure: 30.03"   Gusts: 16mph
Location:  36.7417°N, 83.6911°W
Report Text: K1A6 211655Z AUTO 36007G14KT 10SM SCT039 OVC050 16/08 A3003 RMK AO2 T01620077
Loading
Personal Weather Stations






























Interactive Weather Map
Tropical Storm Tracking
New forecast layout! Learn more

10-Day Weather Forecast

Advertisements
Track Severe Weather on mobile